Latest Weather Observations for Flinders Island Airport

IDT60801

Issued at 10:03 pm EST Saturday 1 October 2016 (issued every 30 minutes, with the page automatically refreshed every 10 minutes)

About weather observations | Map of weather stations | Latest weather observations for TAS | Other Formats
Station Details ID: 099005 Name: FLINDERS ISLAND AIRPORT Lat: -40.09 Lon: 148.00 Height: 9.0 m
Data from the previous 72 hours. | See also: Recent months at Flinders Island Airport
Date/Time
EST
Temp
°C
App
Temp
°C
Dew
Point
°C
Rel
Hum
%
Delta-T
°C
Wind Press
QNH
hPa
Press
MSL
hPa
Rain since
9am
mm
Dir  Spd
km/h
Gust
km/h
Spd
kts
Gust
kts
01/10:00pm 12.5 5.1 9.9 84 1.3 W 39 48 21 26 1003.9 1003.9 0.0
01/09:30pm 12.5 4.1 9.5 82 1.5 W 44 57 24 31 1003.5 1003.5 0.0
01/09:00pm 12.8 4.9 9.4 80 1.7 W 41 56 22 30 1003.1 1003.1 0.0
01/08:30pm 12.6 5.1 9.4 81 1.6 W 39 54 21 29 1003.0 1003.0 0.0
01/08:00pm 12.7 5.2 9.5 81 1.6 W 39 50 21 27 1002.5 1002.5 0.0
01/07:30pm 12.6 5.4 9.2 80 1.7 W 37 52 20 28 1002.2 1002.2 0.0
01/07:00pm 12.7 4.1 9.0 78 1.9 W 44 54 24 29 1001.5 1001.5 0.0
01/06:30pm 12.8 3.8 8.9 77 2.0 W 46 59 25 32 1000.7 1000.7 0.0
01/06:03pm 12.9 3.8 8.6 75 2.1 W 46 65 25 35 1000.3 1000.3 0.0
01/06:00pm 13.0 4.4 8.7 75 2.2 W 44 59 24 32 1000.3 1000.3 0.0
01/05:48pm 13.1 4.5 8.8 75 2.2 WNW 44 63 24 34 1000.2 1000.2 0.0
01/05:30pm 13.4 4.9 9.1 75 2.2 W 44 57 24 31 999.9 999.9 0.0
01/05:00pm 13.8 5.1 8.4 70 2.7 W 44 57 24 31 999.4 999.4 0.0
01/04:30pm 13.9 5.8 9.9 77 2.1 W 43 56 23 30 998.9 998.9 0.0
01/04:00pm 14.0 7.2 10.8 81 1.7 WNW 37 50 20 27 998.5 998.5 0.0
01/03:30pm 14.9 7.9 11.1 78 2.0 W 39 52 21 28 998.0 998.0 0.0
01/03:00pm 15.1 7.4 10.3 73 2.5 W 41 54 22 29 997.9 997.9 0.0
01/02:30pm 15.7 8.7 11.3 75 2.4 WNW 39 56 21 30 997.7 997.7 0.0
01/02:00pm 15.7 7.7 10.5 71 2.8 WNW 43 57 23 31 997.6 997.6 0.0
01/01:30pm 14.6 6.4 9.8 73 2.5 WNW 43 56 23 30 997.6 997.6 0.0
01/01:00pm 15.4 8.2 10.6 73 2.6 WNW 39 50 21 27 997.5 997.5 0.0
01/12:36pm 15.0 8.6 10.8 76 2.2 WNW 35 54 19 29 997.5 997.5 0.0
01/12:30pm 14.8 8.8 10.8 77 2.1 WNW 33 46 18 25 997.5 997.5 0.0
01/12:00pm 13.8 8.4 10.8 82 1.6 WNW 30 43 16 23 997.5 997.5 0.0
01/11:30am 13.5 8.1 11.0 85 1.3 WNW 30 37 16 20 997.4 997.4 0.0
01/11:00am 13.2 7.7 10.4 83 1.5 WNW 30 37 16 20 997.3 997.3 0.0
01/10:30am 12.6 7.5 10.7 88 1.0 W 28 39 15 21 997.4 997.4 0.0
01/10:00am 12.6 6.3 11.2 91 0.7 W 35 41 19 22 997.2 997.2 0.0
01/09:50am 12.2 4.6 10.4 89 0.9 W 41 50 22 27 997.1 997.1 0.0
01/09:37am 12.2 6.2 10.8 91 0.7 W 33 52 18 28 996.8 996.8 0.0
01/09:30am 12.4 7.1 11.3 93 0.6 WNW 30 39 16 21 996.8 996.8 0.0
01/09:21am 12.3 8.2 11.5 95 0.4 NW 24 39 13 21 996.6 996.6 0.0
01/09:09am 12.3 9.0 11.7 96 0.3 NNW 20 28 11 15 996.5 996.5 0.0
01/09:00am 12.1 8.3 11.0 93 0.6 NNW 22 33 12 18 996.5 996.5 2.6
01/08:30am 12.4 9.9 11.1 92 0.7 NNW 15 24 8 13 996.5 996.5 2.2
01/08:27am 12.4 9.9 11.0 91 0.7 NNW 15 24 8 13 996.5 996.5 2.2
01/08:00am 12.1 8.6 10.2 88 1.0 NNW 19 24 10 13 996.4 996.4 2.2
01/07:54am 12.1 9.0 10.2 88 1.0 NNW 17 26 9 14 996.4 996.4 2.2
01/07:30am 12.3 9.9 9.9 85 1.2 NNW 13 22 7 12 996.3 996.3 2.2
01/07:00am 11.7 9.3 9.9 89 0.9 NNW 13 19 7 10 996.2 996.2 2.2
01/06:30am 11.6 9.2 10.0 90 0.8 N 13 20 7 11 995.9 995.9 2.2
01/06:00am 11.2 9.5 10.0 92 0.6 NNE 9 15 5 8 995.7 995.7 2.2
01/05:30am 10.5 8.7 9.6 94 0.5 N 9 13 5 7 995.5 995.5 2.2
01/05:00am 10.3 8.5 9.4 94 0.5 NNE 9 13 5 7 995.2 995.2 2.2
01/04:30am 10.3 8.3 10.1 99 0.1 N 11 15 6 8 995.0 995.0 2.2
01/04:00am 8.5 6.0 8.4 99 0.0 N 11 15 6 8 994.9 994.9 2.2
01/03:30am 5.2 2.4 5.1 99 0.0 NE 9 11 5 6 995.0 995.0 2.2
01/03:00am 5.5 2.8 5.4 99 0.0 NE 9 11 5 6 994.9 994.9 2.2
01/02:30am 5.1 2.3 5.0 99 0.0 NE 9 11 5 6 994.9 994.9 2.2
01/02:00am 5.0 2.5 4.9 99 0.0 N 7 9 4 5 995.0 995.0 2.2
01/01:30am 4.4 1.1 4.3 99 0.0 ENE 11 13 6 7 995.2 995.2 2.2
01/01:00am 4.9 1.6 4.8 99 0.0 ENE 11 13 6 7 995.3 995.3 2.2
01/12:30am 5.0 2.1 4.9 99 0.0 NNE 9 11 5 6 995.4 995.4 2.2
01/12:00am 5.9 3.2 5.8 99 0.0 NE 9 11 5 6 995.5 995.5 2.2
 
Date/Time
EST
Temp
°C
App
Temp
°C
Dew
Point
°C
Rel
Hum
%
Delta-T
°C
Wind Press
QNH
hPa
Press
MSL
hPa
Rain since
9am
mm
Dir  Spd
km/h
Gust
km/h
Spd
kts
Gust
kts
30/11:30pm 4.9 2.0 4.8 99 0.0 ENE 9 11 5 6 995.7 995.7 2.2
30/11:00pm 5.1 2.3 5.0 99 0.0 ENE 9 13 5 7 995.7 995.7 2.2
30/10:30pm 6.0 3.4 5.9 99 0.0 NE 9 9 5 5 995.9 995.9 2.2
30/10:00pm 5.8 3.5 5.7 99 0.0 NE 7 9 4 5 995.9 995.9 2.2
30/09:30pm 5.6 2.9 5.5 99 0.0 ENE 9 11 5 6 995.9 995.9 2.2
30/09:00pm 5.7 3.4 5.6 99 0.0 NNE 7 7 4 4 995.7 995.7 2.2
30/08:30pm 6.4 4.2 6.1 98 0.1 NNE 7 9 4 5 995.4 995.4 2.2
30/08:00pm 6.8 4.8 6.1 95 0.3 NE 6 9 3 5 995.2 995.2 2.2
30/07:30pm 7.7 5.8 6.8 94 0.4 NE 6 9 3 5 994.8 994.8 2.2
30/07:00pm 10.2 7.8 8.5 89 0.8 WSW 11 11 6 6 994.4 994.4 2.2
30/06:30pm 11.5 9.1 8.5 82 1.5 WSW 11 15 6 8 994.2 994.2 2.2
30/06:00pm 12.3 9.6 9.1 81 1.6 WSW 13 17 7 9 993.7 993.7 2.2
30/05:30pm 13.6 11.0 9.5 76 2.1 SW 13 15 7 8 993.2 993.2 2.2
30/05:00pm 14.1 11.6 9.7 75 2.3 SW 13 17 7 9 993.0 993.0 2.2
30/04:30pm 14.2 11.0 10.0 76 2.2 WSW 17 22 9 12 992.5 992.5 2.2
30/04:00pm 14.6 10.9 9.4 71 2.7 WSW 19 24 10 13 992.1 992.1 2.2
30/03:30pm 14.6 11.4 8.5 67 3.1 W 15 19 8 10 991.8 991.8 2.2
30/03:00pm 14.3 10.9 9.3 72 2.6 WSW 17 19 9 10 991.5 991.5 2.2
30/02:30pm 14.7 11.3 10.7 77 2.1 WSW 19 22 10 12 991.4 991.4 2.2
30/02:00pm 14.7 11.8 11.1 79 1.9 WSW 17 19 9 10 991.2 991.2 2.2
30/01:30pm 14.6 11.9 11.7 83 1.6 WSW 17 20 9 11 991.1 991.1 2.0
30/01:00pm 14.1 11.6 11.1 82 1.6 WSW 15 19 8 10 991.1 991.1 2.0
30/12:30pm 14.1 11.9 10.7 80 1.8 SW 13 15 7 8 991.2 991.2 2.0
30/12:00pm 14.3 13.0 11.1 81 1.7 SSW 9 11 5 6 991.3 991.3 2.0
30/11:30am 12.7 11.7 10.4 86 1.2 WSW 6 9 3 5 991.3 991.3 1.8
30/11:00am 12.8 10.9 10.5 86 1.2 SSW 11 13 6 7 991.3 991.3 1.6
30/10:57am 12.7 11.0 9.7 82 1.5 S 9 13 5 7 991.3 991.3 1.6
30/10:43am 12.3 10.7 10.2 87 1.1 SSW 9 11 5 6 991.4 991.4 1.4
30/10:35am 13.0 11.7 10.0 82 1.5 SW 7 11 4 6 991.4 991.4 0.6
30/10:30am 12.9 11.4 8.6 75 2.1 W 6 15 3 8 991.4 991.4 0.6
30/10:25am 12.8 10.7 9.8 82 1.5 W 11 19 6 10 991.4 991.4 0.6
30/10:00am 13.4 11.6 9.3 76 2.1 SW 9 13 5 7 991.5 991.5 0.0
30/09:30am 13.9 12.1 9.5 75 2.3 SW 9 11 5 6 991.5 991.5 0.0
30/09:00am 12.4 12.2 9.1 80 1.7 CALM 0 0 0 0 991.6 991.6 22.6
30/08:30am 10.9 10.0 10.7 99 0.1 NE 6 7 3 4 991.5 991.5 22.6
30/08:00am 8.9 7.3 8.8 99 0.0 ENE 7 9 4 5 991.3 991.3 22.6
30/07:30am 7.1 5.1 7.0 99 0.0 ENE 7 9 4 5 991.0 991.0 22.6
30/07:00am 6.4 3.8 6.3 99 0.0 ENE 9 11 5 6 990.8 990.8 22.6
30/06:30am 5.5 2.8 5.4 99 0.0 ENE 9 11 5 6 990.6 990.6 22.6
30/06:00am 4.3 0.9 4.2 99 0.0 ENE 11 13 6 7 990.6 990.6 22.6
30/05:30am 3.8 0.3 3.7 99 0.0 ENE 11 13 6 7 990.4 990.4 22.6
30/05:00am 4.9 1.6 4.8 99 0.0 NE 11 13 6 7 990.1 990.1 22.6
30/04:30am 5.6 3.3 5.5 99 0.0 ESE 7 9 4 5 990.2 990.2 22.6
30/04:00am 4.7 1.8 4.6 99 0.0 ENE 9 11 5 6 989.7 989.7 22.6
30/03:30am 3.9 0.8 3.8 99 0.0 ENE 9 11 5 6 990.0 990.0 22.6
30/03:00am 4.3 1.3 4.2 99 0.0 NE 9 11 5 6 990.5 990.5 22.4
30/02:30am 4.5 0.4 4.4 99 0.0 ENE 15 17 8 9 991.1 991.1 22.4
30/02:00am 4.4 0.7 4.3 99 0.0 ENE 13 15 7 8 991.6 991.6 22.4
30/01:30am 4.5 0.8 4.4 99 0.0 ENE 13 15 7 8 991.6 991.6 22.4
30/01:00am 5.0 1.4 4.9 99 0.0 ENE 13 13 7 7 991.6 991.6 22.4
30/12:30am 4.4 0.7 4.3 99 0.0 ENE 13 15 7 8 992.3 992.3 22.4
30/12:00am 4.6 0.5 4.5 99 0.0 ENE 15 15 8 8 992.4 992.4 22.4
 
Date/Time
EST
Temp
°C
App
Temp
°C
Dew
Point
°C
Rel
Hum
%
Delta-T
°C
Wind Press
QNH
hPa
Press
MSL
hPa
Rain since
9am
mm
Dir  Spd
km/h
Gust
km/h
Spd
kts
Gust
kts
29/11:30pm 5.0 1.8 4.9 99 0.0 ENE 11 13 6 7 992.4 992.4 22.4
29/11:00pm 4.8 1.5 4.7 99 0.0 ENE 11 13 6 7 991.9 991.9 22.4
29/10:30pm 5.6 2.9 5.5 99 0.0 ENE 9 11 5 6 992.0 992.0 22.4
29/10:00pm 7.3 4.2 7.2 99 0.0 NE 13 13 7 7 992.4 992.4 22.4
29/09:30pm 6.0 3.0 5.9 99 0.0 ENE 11 13 6 7 992.6 992.6 22.4
29/09:00pm 7.3 5.3 7.2 99 0.0 NE 7 9 4 5 992.3 992.3 22.4
29/08:30pm 7.6 4.9 7.5 99 0.0 NE 11 13 6 7 992.4 992.4 22.4
29/08:00pm 8.1 7.2 7.8 98 0.1 N 2 7 1 4 992.3 992.3 22.4
29/07:30pm 9.4 7.6 9.3 99 0.0 NW 9 11 5 6 992.0 992.0 22.4
29/07:00pm 9.9 8.1 9.6 98 0.2 NW 9 13 5 7 991.4 991.4 22.2
29/06:30pm 9.8 7.2 9.3 97 0.2 WNW 13 15 7 8 991.0 991.0 22.2
29/06:00pm 10.8 8.4 10.0 95 0.4 WNW 13 15 7 8 990.8 990.8 22.2
29/05:30pm 11.4 9.2 10.8 96 0.3 WNW 13 15 7 8 990.6 990.6 22.2
29/05:00pm 11.2 7.5 10.3 94 0.5 NW 20 30 11 16 990.5 990.5 22.2
29/04:30pm 11.1 6.0 10.6 97 0.3 NW 28 35 15 19 990.4 990.4 22.2
29/04:16pm 11.0 5.1 10.5 97 0.3 NW 32 46 17 25 990.0 990.0 22.0
29/04:00pm 11.5 5.6 11.0 97 0.3 NW 33 48 18 26 989.4 989.4 21.8
29/03:57pm 12.0 6.2 11.5 97 0.3 NW 33 50 18 27 989.2 989.2 21.8
29/03:47pm 12.2 6.0 11.4 95 0.4 N 35 56 19 30 989.2 989.2 21.2
29/03:45pm 12.6 6.4 11.5 93 0.6 N 35 57 19 31 989.2 989.2 21.0
29/03:30pm 14.1 8.9 13.3 95 0.4 NNE 33 52 18 28 988.2 988.2 20.6
29/03:20pm 14.0 9.0 13.5 97 0.3 NE 32 50 17 27 988.1 988.1 20.2
29/03:06pm 14.1 8.8 13.1 94 0.6 NE 33 48 18 26 988.4 988.4 19.8
29/03:00pm 14.1 8.0 13.0 93 0.6 NE 37 50 20 27 988.4 988.4 18.8
29/02:49pm 14.0 8.0 13.4 96 0.3 NE 37 56 20 30 988.5 988.5 17.4
29/02:40pm 14.2 7.4 13.2 94 0.6 NE 41 56 22 30 988.5 988.5 16.8
29/02:30pm 14.1 6.7 13.0 93 0.6 NE 44 56 24 30 988.4 988.4 16.4
29/02:20pm 14.1 6.7 13.0 93 0.6 NE 44 59 24 32 988.4 988.4 16.4
29/02:05pm 13.9 6.5 13.0 94 0.5 NNE 44 63 24 34 988.7 988.7 16.2
29/02:03pm 14.0 6.2 12.9 93 0.6 NNE 46 63 25 34 988.7 988.7 16.2
29/02:00pm 13.9 5.8 13.1 95 0.4 NNE 48 76 26 41 988.7 988.7 16.0
29/01:49pm 13.8 6.0 13.0 95 0.4 NE 46 65 25 35 988.5 988.5 15.0
29/01:30pm 14.2 5.5 12.6 90 0.9 NE 50 72 27 39 988.5 988.5 12.6
29/01:28pm 14.2 5.6 12.8 91 0.8 NE 50 69 27 37 988.5 988.5 12.4
29/01:13pm 14.2 7.1 13.4 95 0.4 NE 43 67 23 36 988.5 988.5 10.6
29/01:01pm 14.3 6.3 13.5 95 0.4 NE 48 67 26 36 988.8 988.8 8.0
29/01:00pm 14.3 5.9 13.5 95 0.4 NE 50 67 27 36 988.9 988.9 7.8
29/12:49pm 14.3 7.0 13.3 94 0.6 ENE 44 63 24 34 989.3 989.3 6.2
29/12:35pm 14.3 5.7 13.0 92 0.7 NE 50 72 27 39 989.5 989.5 5.4
29/12:30pm 14.3 6.2 13.2 93 0.6 NE 48 72 26 39 989.7 989.7 5.0
29/12:12pm 14.2 5.2 12.9 92 0.7 NE 52 74 28 40 990.2 990.2 4.4
29/12:00pm 14.5 5.7 13.5 94 0.6 NE 52 76 28 41 990.4 990.4 3.8
29/11:57am 14.6 5.5 13.6 94 0.6 NE 54 76 29 41 990.4 990.4 3.8
29/11:33am 14.6 8.0 13.8 95 0.4 NE 41 59 22 32 990.6 990.6 2.6
29/11:30am 14.6 7.5 14.0 96 0.3 NE 44 59 24 32 990.8 990.8 2.4
29/11:13am 14.6 8.0 13.6 94 0.6 NE 41 61 22 33 991.2 991.2 1.8
29/11:07am 14.6 8.3 13.5 93 0.6 NE 39 54 21 29 991.1 991.1 1.6
29/11:01am 14.6 7.3 13.3 92 0.7 NE 44 78 24 42 991.2 991.2 1.4
29/11:00am 14.6 6.9 13.3 92 0.7 NE 46 78 25 42 991.2 991.2 1.4
29/10:32am 15.0 7.4 13.5 91 0.8 NE 46 69 25 37 991.7 991.7 0.8
29/10:30am 15.1 7.8 13.5 90 0.9 NE 44 61 24 33 991.8 991.8 0.8
29/10:15am 15.1 8.0 13.5 90 0.9 NE 43 67 23 36 992.1 992.1 0.4
29/10:01am 15.2 7.5 13.2 88 1.1 NE 46 70 25 38 992.6 992.6 0.2
29/10:00am 15.1 7.4 13.3 89 1.0 NE 46 70 25 38 992.6 992.6 0.2
29/09:51am 15.1 8.4 13.3 89 1.0 NE 41 59 22 32 992.6 992.6 0.2
29/09:44am 15.1 8.7 13.1 88 1.1 NE 39 56 21 30 992.8 992.8 0.2
29/09:38am 15.5 8.0 12.8 84 1.5 NE 44 63 24 34 992.7 992.7 0.0
29/09:30am 15.9 7.6 12.6 81 1.8 NE 48 63 26 34 992.8 992.8 0.0
29/09:00am 16.3 7.2 12.5 78 2.1 NE 52 72 28 39 993.1 993.1 0.0
29/08:30am 16.5 6.6 12.5 77 2.2 NE 56 76 30 41 993.3 993.3 0.0
29/08:00am 16.4 8.0 12.4 77 2.2 NE 48 69 26 37 993.9 993.9 0.0
29/07:35am 16.2 7.1 12.4 78 2.1 NE 52 70 28 38 994.0 994.0 0.0
29/07:30am 16.1 6.5 12.1 77 2.2 NE 54 70 29 38 994.1 994.1 0.0
29/07:06am 16.1 6.1 11.9 76 2.3 NE 56 76 30 41 994.4 994.4 0.0
29/07:00am 16.0 6.3 11.8 76 2.3 NE 54 70 29 38 994.4 994.4 0.0
29/06:30am 15.7 5.5 11.5 76 2.3 NE 56 78 30 42 994.6 994.6 0.0
29/06:02am 15.4 6.3 11.4 77 2.1 NE 50 72 27 39 995.0 995.0 0.0
29/06:00am 15.4 6.3 11.4 77 2.2 NE 50 67 27 36 995.1 995.1 0.0
29/05:37am 15.3 5.8 11.1 76 2.2 NE 52 72 28 39 995.3 995.3 0.0
29/05:30am 15.2 4.9 11.0 76 2.2 NE 56 70 30 38 995.2 995.2 0.0
29/05:00am 15.0 4.4 10.6 75 2.3 NE 57 91 31 49 995.3 995.3 0.0
29/04:32am 14.8 4.4 10.6 76 2.2 NE 56 74 30 40 995.9 995.9 0.0
29/04:30am 14.9 4.3 10.5 75 2.3 NE 57 74 31 40 995.6 995.6 0.0
29/04:00am 14.7 4.6 10.5 76 2.2 NE 54 72 29 39 996.4 996.4 0.0
29/03:30am 14.6 5.0 10.8 78 2.0 NE 52 72 28 39 996.9 996.9 0.0
29/03:00am 14.1 4.0 10.5 79 1.9 NE 54 72 29 39 997.6 997.6 0.0
29/02:34am 14.4 5.4 10.2 76 2.2 NE 48 70 26 38 998.1 998.1 0.0
29/02:30am 14.3 4.9 10.1 76 2.2 NE 50 63 27 34 998.3 998.3 0.0
29/02:01am 14.3 6.6 10.3 77 2.1 ENE 41 59 22 32 999.4 999.4 0.0
29/02:00am 14.3 7.0 10.3 77 2.1 ENE 39 56 21 30 999.4 999.4 0.0
29/01:36am 13.7 6.6 9.7 77 2.1 ENE 37 56 20 30 1000.1 1000.1 0.0
29/01:30am 13.9 6.0 9.5 75 2.3 ENE 41 56 22 30 1000.1 1000.1 0.0
29/01:12am 13.9 7.2 9.5 75 2.3 ENE 35 57 19 31 1000.4 1000.4 0.0
29/01:00am 13.9 6.9 9.9 77 2.1 ENE 37 50 20 27 1000.7 1000.7 0.0
29/12:30am 13.7 6.6 9.7 77 2.1 ENE 37 52 20 28 1001.7 1001.7 0.0
29/12:07am 13.6 5.4 9.8 78 2.0 NE 43 61 23 33 1002.1 1002.1 0.0
29/12:00am 13.7 4.6 9.9 78 2.0 NE 48 59 26 32 1002.1 1002.1 0.0
 
Date/Time
EST
Temp
°C
App
Temp
°C
Dew
Point
°C
Rel
Hum
%
Delta-T
°C
Wind Press
QNH
hPa
Press
MSL
hPa
Rain since
9am
mm
Dir  Spd
km/h
Gust
km/h
Spd
kts
Gust
kts
28/11:30pm 13.9 6.1 9.9 77 2.1 NE 41 56 22 30 1002.6 1002.6 0.0
28/11:00pm 13.5 7.3 10.1 80 1.8 ENE 33 48 18 26 1003.1 1003.1 0.0
28/10:30pm 13.2 7.2 10.0 81 1.6 ENE 32 41 17 22 1003.5 1003.5 0.0

Other Formats:

Comma delimited format used in spreadsheet applications
http://www.bom.gov.au/fwo/IDT60801/IDT60801.94980.axf

JavaScript Object Notation format (JSON) in row-major order
http://www.bom.gov.au/fwo/IDT60801/IDT60801.94980.json